Time;durP1;ratioP1;P1;durP2;ratioP2;P2;SDS_P1;SDS_P2;PMS_P1;PMS_P2;Temp;Humidity;BMP_temperature;BMP_pressure;BME280_temperature;BME280_humidity;BME280_pressure;Samples;Min_cycle;Max_cycle;Signal;HPM_P1;HPM_P2
2024/03/06 00:01:51;;;;;;;37.95;25.95;;;;;;;5.43;87.91;94474.75;5113542;27;20039;-66
2024/03/06 00:04:16;;;;;;;33.65;23.52;;;;;;;5.31;86.48;94425.72;5111470;28;20038;-66
2024/03/06 00:06:42;;;;;;;27.75;19.85;;;;;;;5.64;86.54;94493.09;5093126;28;20027;-66
2024/03/06 00:09:08;;;;;;;30.98;19.15;;;;;;;5.62;86.51;94475.16;5112120;27;20028;-66
2024/03/06 00:11:35;;;;;;;29.42;19.30;;;;;;;5.22;86.26;94446.16;5100523;28;20020;-66
2024/03/06 00:14:02;;;;;;;31.73;19.52;;;;;;;5.33;87.28;94456.53;5072618;28;20056;-66
2024/03/06 00:16:27;;;;;;;27.90;17.92;;;;;;;5.32;87.42;94444.56;5109900;28;20035;-66
2024/03/06 00:18:53;;;;;;;30.58;19.20;;;;;;;5.51;87.08;94449.31;5109172;28;20035;-66
2024/03/06 00:21:18;;;;;;;29.27;18.60;;;;;;;5.22;87.01;94389.50;5091005;28;20065;-66
2024/03/06 00:23:45;;;;;;;28.75;18.58;;;;;;;5.80;86.41;94468.75;5089274;28;20079;-66
2024/03/06 00:26:14;;;;;;;29.65;18.75;;;;;;;5.52;85.95;94438.09;5090456;28;20059;-66
2024/03/06 00:28:39;;;;;;;26.98;18.00;;;;;;;5.76;86.88;94476.78;5090179;28;20032;-66
2024/03/06 00:31:05;;;;;;;29.88;18.88;;;;;;;5.48;86.54;94421.19;5112378;27;20032;-66
2024/03/06 00:33:30;;;;;;;28.75;18.42;;;;;;;5.77;85.60;94452.69;5109868;28;20035;-66
2024/03/06 00:35:57;;;;;;;28.42;18.70;;;;;;;5.71;85.36;94448.78;5109906;28;20048;-66
2024/03/06 00:38:23;;;;;;;27.90;17.70;;;;;;;5.71;85.13;94463.38;5109617;28;20058;-66
2024/03/06 00:40:48;;;;;;;30.50;18.15;;;;;;;5.52;85.40;94438.09;5109777;28;20530;-66
2024/03/06 00:43:13;;;;;;;27.33;18.30;;;;;;;5.60;85.38;94459.00;5109764;28;20405;-66
2024/03/06 00:45:39;;;;;;;26.65;17.67;;;;;;;5.71;84.98;94478.84;5109786;28;20047;-66
2024/03/06 00:48:05;;;;;;;27.90;18.27;;;;;;;5.68;84.45;94479.06;5091218;28;20035;-66
2024/03/06 00:50:30;;;;;;;31.40;18.38;;;;;;;5.48;84.15;94478.66;5109792;28;20055;-66
2024/03/06 00:52:56;;;;;;;32.38;20.77;;;;;;;5.05;84.61;94445.53;5109879;28;20028;-66
2024/03/06 00:55:21;;;;;;;32.28;20.00;;;;;;;4.40;85.31;94383.78;5109596;28;20040;-66
2024/03/06 00:57:47;;;;;;;36.40;21.88;;;;;;;4.86;84.99;94427.09;5088340;28;20039;-66
2024/03/06 01:00:13;;;;;;;31.40;21.08;;;;;;;4.83;84.66;94456.41;5090626;28;20089;-66
2024/03/06 01:02:38;;;;;;;29.90;18.58;;;;;;;4.72;84.92;94442.63;5075526;28;20493;-66
2024/03/06 01:05:04;;;;;;;27.42;18.15;;;;;;;4.85;83.88;94467.44;5092635;28;20059;-66
2024/03/06 01:07:32;;;;;;;36.25;23.33;;;;;;;4.78;83.86;94473.91;5108433;28;20024;-66
2024/03/06 01:09:58;;;;;;;53.03;30.98;;;;;;;4.67;83.32;94466.88;5109554;28;20031;-66
2024/03/06 01:12:24;;;;;;;53.97;31.85;;;;;;;4.76;83.79;94473.19;5110365;28;20031;-66
2024/03/06 01:14:49;;;;;;;48.22;27.58;;;;;;;4.42;83.29;94438.53;5107861;28;20451;-66
2024/03/06 01:17:15;;;;;;;42.55;25.38;;;;;;;4.50;83.02;94468.91;5094120;28;20028;-66
2024/03/06 01:19:40;;;;;;;46.22;27.98;;;;;;;4.59;82.08;94489.72;5096453;28;20020;-67
2024/03/06 01:22:06;;;;;;;44.00;25.17;;;;;;;4.36;81.66;94480.09;5113349;28;20023;-66
2024/03/06 01:24:31;;;;;;;38.47;22.17;;;;;;;4.32;80.96;94484.59;5111505;28;20097;-66
2024/03/06 01:26:57;;;;;;;33.63;19.58;;;;;;;4.22;80.31;94486.09;5114445;28;20116;-66
2024/03/06 01:29:22;;;;;;;35.05;20.73;;;;;;;4.06;80.76;94480.25;5113307;28;20503;-66
2024/03/06 01:31:48;;;;;;;34.53;20.27;;;;;;;3.79;81.26;94448.50;5113099;28;20466;-66
2024/03/06 01:34:13;;;;;;;38.90;20.55;;;;;;;3.75;82.94;94479.59;5092629;28;20040;-66
2024/03/06 01:36:39;;;;;;;26.65;17.17;;;;;;;3.71;82.81;94478.16;5075674;28;20447;-66
2024/03/06 01:39:05;;;;;;;27.65;15.07;;;;;;;3.84;82.43;94491.88;5075708;28;20082;-66
2024/03/06 01:41:30;;;;;;;25.55;14.75;;;;;;;3.77;82.42;94508.59;5102405;27;20023;-66
2024/03/06 01:43:55;;;;;;;29.83;15.13;;;;;;;3.63;82.70;94480.34;5112281;28;20080;-66
2024/03/06 01:46:21;;;;;;;36.40;17.77;;;;;;;3.67;83.14;94499.78;5112838;28;20028;-66
2024/03/06 01:48:46;;;;;;;28.58;14.60;;;;;;;3.50;84.09;94481.09;5127787;27;20035;-66
2024/03/06 01:51:12;;;;;;;31.92;16.00;;;;;;;3.53;83.01;94498.88;5125912;27;20055;-66
2024/03/06 01:53:37;;;;;;;34.20;16.52;;;;;;;3.42;84.39;94492.75;5116529;27;20023;-66
2024/03/06 01:56:04;;;;;;;37.45;16.88;;;;;;;3.13;85.12;94455.06;5134404;27;20027;-66
2024/03/06 01:58:30;;;;;;;26.80;14.68;;;;;;;3.11;87.40;94494.56;5099045;27;20119;-66
2024/03/06 02:00:56;;;;;;;24.67;14.50;;;;;;;2.99;90.46;94467.06;5086418;28;20031;-66
2024/03/06 02:03:21;;;;;;;26.58;15.30;;;;;;;3.22;91.61;94465.69;5095318;28;20023;-66
2024/03/06 02:05:48;;;;;;;26.58;15.07;;;;;;;3.08;91.66;94446.78;5095465;28;20028;-65
2024/03/06 02:08:14;;;;;;;24.30;13.80;;;;;;;3.22;92.10;94474.22;5095451;28;20036;-66
2024/03/06 02:10:39;;;;;;;28.63;14.90;;;;;;;3.23;92.15;94475.03;5101553;27;20128;-66
2024/03/06 02:13:04;;;;;;;24.05;12.98;;;;;;;3.42;92.11;94496.13;5134203;27;20035;-66
2024/03/06 02:15:30;;;;;;;24.05;13.15;;;;;;;3.50;91.13;94498.25;5133986;27;20023;-66
2024/03/06 02:17:55;;;;;;;28.02;18.77;;;;;;;3.01;88.70;94430.13;5094162;27;20039;-66
2024/03/06 02:20:23;;;;;;;30.38;19.67;;;;;;;3.34;88.82;94488.06;5113349;27;20084;-66
2024/03/06 02:22:48;;;;;;;27.15;18.05;;;;;;;3.13;88.95;94455.06;5111426;28;20117;-67
2024/03/06 02:25:15;;;;;;;23.73;15.18;;;;;;;3.39;88.55;94498.88;5112109;28;20040;-66
2024/03/06 02:27:40;;;;;;;26.02;15.55;;;;;;;3.38;89.50;94499.81;5073892;28;20172;-66
2024/03/06 02:30:06;;;;;;;25.85;14.90;;;;;;;3.29;88.08;94490.09;5091679;28;20115;-66
2024/03/06 02:32:32;;;;;;;24.08;13.95;;;;;;;3.26;87.23;94485.13;5076720;27;20032;-66
2024/03/06 02:34:57;;;;;;;25.00;15.48;;;;;;;2.72;88.11;94407.91;5132296;27;20042;-66
2024/03/06 02:37:24;;;;;;;27.00;17.05;;;;;;;3.29;87.90;94497.78;5117595;27;20031;-66
2024/03/06 02:39:49;;;;;;;30.85;20.38;;;;;;;3.18;88.47;94510.44;5094943;28;20036;-67
2024/03/06 02:42:16;;;;;;;36.58;20.10;;;;;;;3.30;88.04;94509.72;5121833;27;20023;-66
2024/03/06 02:44:42;;;;;;;27.92;17.25;;;;;;;3.31;87.79;94519.88;5115070;27;20413;-66
2024/03/06 02:47:07;;;;;;;30.00;17.15;;;;;;;3.39;87.51;94519.41;5091243;28;20047;-66
2024/03/06 02:49:33;;;;;;;30.52;17.60;;;;;;;3.22;87.80;94520.41;5086969;27;20023;-66
2024/03/06 02:52:00;;;;;;;30.25;18.35;;;;;;;2.89;88.83;94471.88;5132050;27;20032;-66
2024/03/06 02:54:26;;;;;;;29.13;18.20;;;;;;;3.07;89.52;94516.19;5127795;27;20114;-66
2024/03/06 02:56:52;;;;;;;29.02;17.92;;;;;;;3.12;89.95;94498.75;5114200;27;20507;-66
2024/03/06 02:59:17;;;;;;;27.00;16.23;;;;;;;3.09;88.76;94502.38;5098050;27;20077;-66
2024/03/06 03:01:43;;;;;;;27.77;15.85;;;;;;;3.24;87.50;94515.22;5114887;27;20446;-66
2024/03/06 03:04:10;;;;;;;24.52;15.38;;;;;;;3.34;85.93;94522.28;5103381;28;20070;-66
2024/03/06 03:06:35;;;;;;;26.73;16.48;;;;;;;3.10;85.21;94501.44;5122241;27;20063;-67
2024/03/06 03:09:01;;;;;;;25.55;15.65;;;;;;;3.18;85.79;94524.09;5131830;27;20027;-66
2024/03/06 03:11:26;;;;;;;26.70;16.67;;;;;;;3.15;85.19;94514.00;5132931;27;20027;-67
2024/03/06 03:13:52;;;;;;;23.50;15.75;;;;;;;2.77;85.93;94498.25;5094557;28;20024;-66
2024/03/06 03:16:18;;;;;;;25.02;15.80;;;;;;;2.76;86.44;94488.88;5073851;28;20039;-66
2024/03/06 03:18:44;;;;;;;24.15;14.13;;;;;;;3.09;83.96;94522.91;5095653;27;20310;-67
2024/03/06 03:21:09;;;;;;;19.10;12.50;;;;;;;2.86;83.32;94513.13;5130053;27;20055;-66
2024/03/06 03:23:39;;;;;;;21.17;12.45;;;;;;;2.80;84.40;94532.25;5124526;27;20527;-66
2024/03/06 03:26:05;;;;;;;17.20;11.38;;;;;;;2.88;83.86;94532.66;5114383;27;20042;-67
2024/03/06 03:28:30;;;;;;;19.83;11.75;;;;;;;2.73;83.95;94532.69;5119401;27;20055;-66
2024/03/06 03:30:56;;;;;;;20.60;11.23;;;;;;;2.69;85.65;94532.84;5072445;28;20043;-66
2024/03/06 03:33:22;;;;;;;17.85;10.43;;;;;;;2.75;85.13;94533.44;5091747;28;20024;-66
2024/03/06 03:35:48;;;;;;;18.42;12.00;;;;;;;2.81;83.98;94538.19;5090245;28;20024;-67
2024/03/06 03:38:13;;;;;;;23.25;13.77;;;;;;;2.71;83.87;94530.22;5090216;28;20055;-66
2024/03/06 03:40:38;;;;;;;21.40;12.45;;;;;;;2.71;84.28;94537.91;5100575;28;20560;-66
2024/03/06 03:43:06;;;;;;;22.80;13.95;;;;;;;2.64;85.11;94534.03;5071661;28;20036;-66
2024/03/06 03:45:35;;;;;;;22.05;13.25;;;;;;;2.54;85.56;94533.72;5072181;28;20030;-66
2024/03/06 03:48:05;;;;;;;24.70;14.60;;;;;;;2.44;85.12;94517.19;5088350;28;20028;-66
2024/03/06 03:50:30;;;;;;;22.58;15.23;;;;;;;2.61;84.35;94540.16;5090707;28;20469;-66
2024/03/06 03:52:57;;;;;;;24.33;15.15;;;;;;;2.43;85.28;94518.13;5072003;28;20054;-66
2024/03/06 03:55:24;;;;;;;25.67;14.20;;;;;;;2.44;85.79;94543.66;5056879;28;20429;-66
2024/03/06 03:57:50;;;;;;;24.35;14.55;;;;;;;2.16;86.32;94512.75;5073160;28;20630;-66
2024/03/06 04:00:16;;;;;;;24.00;14.45;;;;;;;1.92;85.42;94456.00;5078303;28;20031;-66
2024/03/06 04:02:42;;;;;;;28.73;15.30;;;;;;;2.41;85.59;94545.56;5090850;28;20081;-66
2024/03/06 04:05:07;;;;;;;23.63;14.82;;;;;;;2.08;85.75;94517.47;5085226;28;20023;-66
2024/03/06 04:07:34;;;;;;;23.83;14.73;;;;;;;2.22;85.51;94527.81;5110149;28;20034;-66
2024/03/06 04:09:59;;;;;;;23.73;13.93;;;;;;;2.37;85.73;94546.66;5089873;28;20024;-66
2024/03/06 04:12:24;;;;;;;22.60;13.93;;;;;;;2.43;86.12;94564.28;5072969;28;20328;-66
2024/03/06 04:14:50;;;;;;;27.10;14.77;;;;;;;2.51;84.87;94558.69;5091155;28;20028;-66
2024/03/06 04:17:15;;;;;;;24.52;15.20;;;;;;;2.20;85.63;94562.94;5090166;28;20035;-66
2024/03/06 04:19:41;;;;;;;26.77;15.40;;;;;;;2.08;86.36;94561.88;5099472;28;20381;-66
2024/03/06 04:22:06;;;;;;;23.58;12.45;;;;;;;1.59;89.62;94505.56;5113387;28;20059;-66
2024/03/06 04:24:31;;;;;;;19.02;10.75;;;;;;;2.06;90.07;94558.56;5131793;27;20043;-66
2024/03/06 04:26:57;;;;;;;18.23;11.38;;;;;;;2.06;90.01;94562.84;5113417;28;20050;-66
2024/03/06 04:29:22;;;;;;;19.20;10.80;;;;;;;1.99;90.14;94529.06;5099824;28;20035;-66
2024/03/06 04:31:48;;;;;;;17.75;10.38;;;;;;;2.07;89.90;94534.59;5111193;28;20039;-66
2024/03/06 04:34:13;;;;;;;19.00;10.30;;;;;;;2.24;89.39;94560.13;5109973;28;20031;-66
2024/03/06 04:36:38;;;;;;;16.27;9.75;;;;;;;2.15;89.74;94541.88;5109952;28;20417;-66
2024/03/06 04:39:07;;;;;;;20.85;14.05;;;;;;;2.29;89.33;94566.75;5110061;28;20035;-66
2024/03/06 04:41:33;;;;;;;40.78;25.08;;;;;;;1.94;89.51;94511.34;5093290;28;20028;-66
2024/03/06 04:44:00;;;;;;;32.25;20.90;;;;;;;2.33;89.44;94566.50;5092819;28;20495;-66
2024/03/06 04:46:26;;;;;;;40.17;24.73;;;;;;;2.11;90.02;94553.19;5093055;28;20027;-66
2024/03/06 04:48:51;;;;;;;36.75;23.42;;;;;;;2.44;88.83;94568.47;5092926;28;20038;-66
2024/03/06 04:51:19;;;;;;;33.00;21.48;;;;;;;2.19;86.51;94502.34;5094303;28;20028;-66
2024/03/06 04:53:45;;;;;;;38.10;21.23;;;;;;;2.24;87.44;94567.81;5113877;28;20111;-67
2024/03/06 04:56:10;;;;;;;23.38;15.52;;;;;;;2.52;86.37;94581.72;5113740;28;20027;-67
2024/03/06 04:58:36;;;;;;;25.50;16.05;;;;;;;2.59;84.61;94583.03;5096763;28;20504;-66
2024/03/06 05:01:01;;;;;;;21.27;13.43;;;;;;;2.57;84.54;94589.16;5096720;28;20027;-66
2024/03/06 05:03:26;;;;;;;23.55;13.05;;;;;;;2.08;85.02;94536.25;5113413;28;20042;-66
2024/03/06 05:05:52;;;;;;;20.13;12.38;;;;;;;1.82;85.75;94537.66;5071340;28;20028;-66
2024/03/06 05:08:17;;;;;;;24.42;12.25;;;;;;;1.58;86.20;94491.09;5103923;28;20035;-66
2024/03/06 05:10:43;;;;;;;14.15;8.82;;;;;;;2.08;85.72;94543.94;5089759;27;20040;-66
2024/03/06 05:13:08;;;;;;;14.27;9.57;;;;;;;2.34;84.65;94562.19;5108403;28;20039;-67
2024/03/06 05:15:34;;;;;;;15.77;9.32;;;;;;;2.52;84.52;94602.22;5110821;27;20020;-67
2024/03/06 05:18:00;;;;;;;18.38;9.65;;;;;;;2.22;85.78;94604.69;5093569;27;20047;-67
2024/03/06 05:20:25;;;;;;;14.85;9.48;;;;;;;1.68;86.26;94522.19;5075580;28;20443;-67
2024/03/06 05:22:51;;;;;;;16.38;9.85;;;;;;;2.27;87.24;94599.34;5087445;28;20042;-66
2024/03/06 05:25:16;;;;;;;19.60;11.00;;;;;;;2.19;87.65;94590.31;5105985;27;20042;-67
2024/03/06 05:27:42;;;;;;;22.35;11.80;;;;;;;2.26;88.15;94593.38;5111070;27;20031;-66
2024/03/06 05:30:08;;;;;;;16.35;9.45;;;;;;;2.39;88.52;94612.31;5108462;27;20039;-66
2024/03/06 05:32:34;;;;;;;13.07;8.05;;;;;;;2.33;88.63;94611.81;5109639;27;20098;-67
2024/03/06 05:34:59;;;;;;;12.23;8.18;;;;;;;2.52;88.81;94612.47;5108610;27;20635;-67
2024/03/06 05:37:25;;;;;;;15.98;9.15;;;;;;;2.67;87.96;94609.09;5096454;27;20023;-67
2024/03/06 05:39:50;;;;;;;26.08;14.68;;;;;;;2.85;86.56;94616.66;5073139;28;20027;-67
2024/03/06 05:42:16;;;;;;;47.88;27.17;;;;;;;2.41;87.34;94563.53;5107943;28;20020;-67
2024/03/06 05:44:41;;;;;;;49.78;28.52;;;;;;;2.28;89.02;94581.28;5091829;28;20429;-67
2024/03/06 05:47:07;;;;;;;33.78;20.50;;;;;;;2.81;88.96;94622.88;5093942;27;20075;-67
2024/03/06 05:49:32;;;;;;;37.28;22.33;;;;;;;2.90;87.63;94601.84;5091840;28;20122;-66
2024/03/06 05:51:58;;;;;;;36.10;22.20;;;;;;;2.99;86.94;94585.91;5108065;28;20019;-67
2024/03/06 05:54:24;;;;;;;34.95;22.95;;;;;;;3.21;87.75;94621.47;5110075;28;20039;-67
2024/03/06 05:56:51;;;;;;;41.10;23.70;;;;;;;3.34;87.38;94617.28;5110763;28;20028;-68
2024/03/06 05:59:16;;;;;;;40.25;23.90;;;;;;;3.46;87.00;94613.19;5091381;27;20505;-67
2024/03/06 06:01:42;;;;;;;42.70;26.17;;;;;;;3.47;86.38;94598.59;5108395;27;20031;-69
2024/03/06 06:04:09;;;;;;;37.97;24.83;;;;;;;3.72;86.82;94629.63;5105975;28;20035;-67
2024/03/06 06:06:34;;;;;;;36.22;24.27;;;;;;;3.23;86.59;94547.75;5096237;27;20039;-67
2024/03/06 06:09:00;;;;;;;38.03;23.92;;;;;;;3.47;86.60;94581.44;5111086;27;20048;-67
2024/03/06 06:11:25;;;;;;;43.33;27.15;;;;;;;3.25;88.50;94612.66;5090829;28;20500;-67
2024/03/06 06:13:50;;;;;;;65.80;33.40;;;;;;;3.71;88.21;94632.31;5092419;28;20092;-67
2024/03/06 06:16:17;;;;;;;53.63;30.40;;;;;;;3.92;87.07;94625.06;5092467;28;20073;-67
2024/03/06 06:18:42;;;;;;;54.20;30.20;;;;;;;4.22;84.28;94635.25;5108436;27;20035;-68
2024/03/06 06:21:08;;;;;;;59.22;28.13;;;;;;;3.80;84.24;94558.06;5095289;28;20035;-67
2024/03/06 06:23:34;;;;;;;42.50;23.23;;;;;;;4.36;83.80;94606.94;5088661;28;20641;-68
2024/03/06 06:26:00;;;;;;;37.08;23.63;;;;;;;4.58;82.78;94631.34;5092491;28;20034;-68
2024/03/06 06:28:25;;;;;;;49.78;28.38;;;;;;;4.61;82.41;94636.28;5073597;28;20508;-67
2024/03/06 06:30:52;;;;;;;45.45;29.17;;;;;;;4.34;82.99;94595.91;5112586;27;20023;-67
2024/03/06 06:33:20;;;;;;;41.85;24.50;;;;;;;4.08;84.82;94594.13;5116307;27;20083;-67
2024/03/06 06:35:46;;;;;;;34.58;21.20;;;;;;;4.36;85.08;94642.13;5093447;27;20444;-68
2024/03/06 06:38:12;;;;;;;34.50;21.08;;;;;;;4.13;85.98;94616.06;5132388;27;20032;-68
2024/03/06 06:40:37;;;;;;;43.30;25.83;;;;;;;4.30;85.62;94638.16;5115177;27;20500;-67
2024/03/06 06:43:03;;;;;;;47.83;28.30;;;;;;;4.37;86.80;94642.00;5096104;27;20027;-67
2024/03/06 06:45:28;;;;;;;44.08;27.13;;;;;;;4.18;87.85;94639.75;5130696;27;20106;-67
2024/03/06 06:47:53;;;;;;;42.63;26.60;;;;;;;3.96;89.02;94632.50;5127623;27;20035;-67
2024/03/06 06:50:22;;;;;;;41.83;25.52;;;;;;;3.89;89.79;94638.91;5126151;27;20271;-67
2024/03/06 06:52:48;;;;;;;45.92;26.08;;;;;;;3.90;90.23;94638.00;5078470;28;20132;-68
2024/03/06 06:55:13;;;;;;;42.55;26.58;;;;;;;4.02;90.27;94651.88;5111245;27;20031;-68
2024/03/06 06:57:39;;;;;;;41.90;26.20;;;;;;;4.05;90.52;94635.44;5081595;28;20040;-67
2024/03/06 07:00:10;;;;;;;41.10;23.60;;;;;;;4.66;88.92;94647.13;5077708;28;20412;-67
2024/03/06 07:02:45;;;;;;;;;;;;;;;4.64;88.30;94641.25;5074258;28;20058;-68
2024/03/06 07:05:10;;;;;;;44.58;23.95;;;;;;;4.90;88.31;94648.16;5118889;27;19958;-68
2024/03/06 07:07:36;;;;;;;48.45;29.05;;;;;;;5.25;86.11;94652.81;5090192;28;20555;-68
2024/03/06 07:10:02;;;;;;;47.20;28.10;;;;;;;5.75;82.38;94643.50;5086561;27;20038;-67
2024/03/06 07:12:28;;;;;;;49.15;29.92;;;;;;;6.22;79.95;94638.69;5086553;28;20140;-67
2024/03/06 07:14:53;;;;;;;51.13;33.80;;;;;;;6.22;78.83;94636.94;5110376;27;20023;-67
2024/03/06 07:17:19;;;;;;;50.08;32.00;;;;;;;6.63;78.51;94642.72;5095167;28;20019;-67
2024/03/06 07:19:44;;;;;;;52.05;35.15;;;;;;;7.19;75.14;94643.06;5118300;27;20059;-69
2024/03/06 07:22:10;;;;;;;47.22;30.92;;;;;;;7.57;73.78;94637.66;5112116;27;20077;-70
2024/03/06 07:24:36;;;;;;;45.35;27.75;;;;;;;7.49;73.54;94649.50;5084720;27;20059;-70
2024/03/06 07:27:02;;;;;;;43.90;27.92;;;;;;;7.73;72.81;94639.13;5104752;27;20024;-68
2024/03/06 07:29:28;;;;;;;42.40;26.23;;;;;;;7.71;72.44;94641.81;5090294;28;20043;-70
2024/03/06 07:31:56;;;;;;;41.45;24.58;;;;;;;8.28;70.90;94634.97;5101759;28;20515;-70
2024/03/06 07:34:21;;;;;;;37.22;22.98;;;;;;;8.50;70.20;94645.34;5071153;27;20558;-68
2024/03/06 07:36:47;;;;;;;32.97;21.50;;;;;;;7.91;71.45;94621.41;5114034;27;20039;-69
2024/03/06 07:39:15;;;;;;;35.90;22.55;;;;;;;7.72;73.13;94638.31;5096464;28;20038;-69
2024/03/06 07:41:41;;;;;;;34.40;23.30;;;;;;;8.02;72.18;94649.88;5072996;28;20494;-69
2024/03/06 07:44:06;;;;;;;32.55;21.90;;;;;;;8.24;70.69;94612.84;5088335;28;20062;-69
2024/03/06 07:46:31;;;;;;;34.13;22.02;;;;;;;8.38;70.25;94651.41;5091411;28;20028;-69
2024/03/06 07:48:57;;;;;;;34.42;22.38;;;;;;;8.94;68.61;94650.56;5089995;28;20036;-69
2024/03/06 07:51:23;;;;;;;34.95;22.35;;;;;;;8.96;67.53;94630.56;5090113;28;20021;-69
2024/03/06 07:53:50;;;;;;;34.90;22.13;;;;;;;9.46;66.86;94641.22;5072594;28;20232;-69
2024/03/06 07:56:15;;;;;;;34.55;22.42;;;;;;;10.71;62.39;94640.31;5088101;28;20032;-69
2024/03/06 07:58:41;;;;;;;31.20;20.92;;;;;;;10.32;62.97;94646.31;5088194;28;20508;-69
2024/03/06 08:01:07;;;;;;;29.63;20.30;;;;;;;10.28;63.21;94650.97;5071265;28;20035;-69
2024/03/06 08:03:33;;;;;;;32.30;21.90;;;;;;;10.36;63.29;94645.09;5089392;28;20027;-69
2024/03/06 08:05:59;;;;;;;34.05;22.13;;;;;;;10.21;63.34;94648.00;5088041;28;20024;-69
2024/03/06 08:08:24;;;;;;;33.08;20.83;;;;;;;10.46;62.29;94648.56;5071049;28;20039;-69
2024/03/06 08:10:50;;;;;;;27.98;19.52;;;;;;;9.57;65.74;94614.44;5089360;28;20456;-69
2024/03/06 08:13:15;;;;;;;27.35;19.20;;;;;;;9.70;66.25;94637.59;5089913;28;20036;-69
2024/03/06 08:15:44;;;;;;;29.85;19.33;;;;;;;8.62;69.82;94651.34;5089696;28;20111;-70
2024/03/06 08:18:09;;;;;;;27.98;18.27;;;;;;;8.39;70.98;94637.59;5091072;28;20485;-69
2024/03/06 08:20:35;;;;;;;26.73;18.02;;;;;;;8.31;71.59;94649.44;5090987;28;20028;-69
2024/03/06 08:23:00;;;;;;;27.42;18.35;;;;;;;7.98;73.57;94644.09;5089464;28;20036;-69
2024/03/06 08:25:26;;;;;;;29.92;18.27;;;;;;;8.36;72.99;94655.06;5072594;28;20417;-69
2024/03/06 08:27:51;;;;;;;27.20;18.08;;;;;;;8.02;73.86;94645.53;5073026;28;20036;-69
2024/03/06 08:30:17;;;;;;;26.65;17.98;;;;;;;8.22;73.35;94650.97;5090978;28;20024;-69
2024/03/06 08:32:43;;;;;;;25.98;17.02;;;;;;;8.77;71.10;94644.13;5090768;28;20032;-69
2024/03/06 08:35:13;;;;;;;28.77;17.10;;;;;;;8.30;71.93;94646.00;5089544;28;20032;-69
2024/03/06 08:37:39;;;;;;;21.42;15.52;;;;;;;7.96;72.75;94642.56;5089642;28;20565;-69
2024/03/06 08:40:05;;;;;;;22.90;15.68;;;;;;;8.07;73.97;94638.22;5072729;28;20027;-69
2024/03/06 08:42:30;;;;;;;23.45;14.38;;;;;;;8.20;72.86;94635.53;5089527;28;20024;-69
2024/03/06 08:44:56;;;;;;;20.58;14.50;;;;;;;8.43;71.76;94630.41;5089528;28;20500;-69
2024/03/06 08:47:22;;;;;;;15.52;9.55;;;;;;;8.07;69.28;94633.06;5089460;28;20027;-69
2024/03/06 08:49:47;;;;;;;16.58;10.65;;;;;;;8.50;69.70;94629.81;5072561;28;20413;-69
2024/03/06 08:52:13;;;;;;;17.40;10.50;;;;;;;8.81;67.70;94642.97;5089445;28;20028;-69
2024/03/06 08:54:41;;;;;;;17.67;11.32;;;;;;;8.65;68.55;94630.38;5089423;28;20047;-69
2024/03/06 08:57:07;;;;;;;16.35;11.18;;;;;;;8.72;67.86;94641.91;5056240;28;20157;-69
2024/03/06 08:59:35;;;;;;;16.15;10.90;;;;;;;8.81;67.87;94639.56;5072777;28;20040;-69
2024/03/06 09:02:15;;;;;;;15.77;10.60;;;;;;;8.61;67.83;94647.13;5089442;28;20424;-70
2024/03/06 09:04:44;;;;;;;15.23;9.97;;;;;;;8.72;67.44;94644.50;5106402;28;20554;-69
2024/03/06 09:07:10;;;;;;;16.83;10.05;;;;;;;9.28;65.25;94628.00;5089266;28;20081;-69
2024/03/06 09:09:36;;;;;;;18.10;10.48;;;;;;;8.88;66.92;94649.28;5072709;28;20043;-69
2024/03/06 09:12:12;;;;;;;20.50;13.00;;;;;;;8.86;67.73;94653.78;5072610;28;20024;-69
2024/03/06 09:14:38;;;;;;;14.52;8.70;;;;;;;8.89;66.00;94642.38;5089632;28;20037;-69
2024/03/06 09:17:04;;;;;;;14.73;10.55;;;;;;;8.99;66.69;94629.50;5089309;28;20055;-69
2024/03/06 09:19:29;;;;;;;14.73;10.50;;;;;;;9.02;67.08;94649.97;5072494;28;20063;-69
2024/03/06 09:21:55;;;;;;;15.27;11.02;;;;;;;8.97;67.81;94644.31;5072414;28;20417;-70
2024/03/06 09:24:22;;;;;;;17.58;10.63;;;;;;;9.31;67.18;94639.88;5089045;28;20082;-69
2024/03/06 09:26:49;;;;;;;16.58;10.95;;;;;;;9.09;65.96;94633.00;5072468;28;20550;-69
2024/03/06 09:29:14;;;;;;;15.70;10.63;;;;;;;8.84;66.26;94618.59;5072373;28;20093;-69
2024/03/06 09:31:40;;;;;;;18.15;11.73;;;;;;;9.24;65.86;94641.31;5090314;28;20021;-69
2024/03/06 09:34:05;;;;;;;20.25;11.63;;;;;;;9.58;64.91;94636.81;5089001;28;20040;-69
2024/03/06 09:36:32;;;;;;;20.70;11.93;;;;;;;9.77;64.88;94628.34;5089109;28;20028;-69
2024/03/06 09:38:58;;;;;;;18.17;11.98;;;;;;;9.90;64.33;94631.59;5092965;28;20509;-69
2024/03/06 09:41:25;;;;;;;17.10;11.20;;;;;;;10.05;63.73;94632.06;5093908;28;20024;-69
2024/03/06 09:43:50;;;;;;;17.33;12.30;;;;;;;9.87;64.68;94628.44;5075934;28;20044;-69
2024/03/06 09:46:15;;;;;;;17.70;12.07;;;;;;;10.00;63.84;94618.66;5092614;28;20070;-69
2024/03/06 09:48:47;;;;;;;17.30;12.23;;;;;;;9.94;63.85;94621.75;5075456;28;20042;-69
2024/03/06 09:51:14;;;;;;;19.23;12.82;;;;;;;10.05;63.74;94619.09;5092489;28;20051;-69
2024/03/06 09:53:43;;;;;;;18.33;12.73;;;;;;;10.15;63.36;94613.97;5075510;28;20063;-68
2024/03/06 09:56:08;;;;;;;16.48;11.23;;;;;;;10.45;61.66;94615.78;5092289;28;20481;-68
2024/03/06 09:58:35;;;;;;;15.77;10.73;;;;;;;10.26;61.71;94621.66;5092299;28;20055;-68
2024/03/06 10:01:03;;;;;;;17.20;9.38;;;;;;;10.11;59.52;94605.59;5093470;28;20032;-69
2024/03/06 10:03:28;;;;;;;13.23;8.30;;;;;;;10.44;57.66;94609.72;5092206;28;20413;-69
2024/03/06 10:05:55;;;;;;;11.02;8.43;;;;;;;10.59;56.24;94612.81;5093377;28;20031;-69
2024/03/06 10:08:21;;;;;;;14.00;8.60;;;;;;;10.96;55.71;94609.63;5092156;28;20729;-69
2024/03/06 10:10:49;;;;;;;16.77;9.43;;;;;;;11.25;55.25;94608.81;5093274;28;20031;-69
2024/03/06 10:13:17;;;;;;;11.68;8.95;;;;;;;10.93;55.48;94583.91;5075341;28;20032;-68
2024/03/06 10:15:44;;;;;;;15.23;9.70;;;;;;;11.23;54.52;94595.13;5075183;28;20107;-69
2024/03/06 10:18:19;;;;;;;20.55;9.73;;;;;;;11.16;55.87;94598.28;5075275;28;20040;-68
2024/03/06 10:20:44;;;;;;;13.50;8.88;;;;;;;10.98;55.30;94593.88;5092053;28;20039;-69
2024/03/06 10:23:10;;;;;;;13.75;9.50;;;;;;;10.78;56.66;94598.22;5074544;28;20052;-68
2024/03/06 10:25:35;;;;;;;16.30;9.88;;;;;;;10.68;56.27;94598.19;5074986;28;20024;-68
2024/03/06 10:28:05;;;;;;;14.65;9.57;;;;;;;10.90;54.90;94586.75;5075003;28;20049;-69
2024/03/06 10:30:31;;;;;;;11.27;8.55;;;;;;;11.22;52.23;94572.69;5092897;28;20082;-68
2024/03/06 10:32:56;;;;;;;14.23;8.50;;;;;;;11.30;54.59;94585.84;5091679;28;20281;-68
2024/03/06 10:35:22;;;;;;;13.63;9.18;;;;;;;10.80;53.99;94531.34;5092728;28;20077;-68
2024/03/06 10:37:48;;;;;;;18.92;9.77;;;;;;;11.31;54.06;94569.25;5091370;28;20035;-69
2024/03/06 10:40:14;;;;;;;15.70;9.73;;;;;;;11.41;54.12;94572.69;5074716;28;20020;-69
2024/03/06 10:42:42;;;;;;;12.05;9.00;;;;;;;11.55;53.37;94572.25;5074882;28;20071;-69
2024/03/06 10:45:08;;;;;;;15.48;9.23;;;;;;;11.44;53.30;94569.00;5074833;28;20555;-69
2024/03/06 10:47:34;;;;;;;12.63;8.35;;;;;;;11.41;53.17;94567.47;5091244;28;20051;-69
2024/03/06 10:50:00;;;;;;;15.20;10.20;;;;;;;11.77;52.28;94559.91;5091126;28;20086;-68
2024/03/06 10:52:27;;;;;;;13.90;9.27;;;;;;;12.08;51.97;94558.75;5074381;28;20075;-68
2024/03/06 10:54:52;;;;;;;12.07;7.32;;;;;;;12.22;50.82;94554.03;5074445;28;20035;-68
2024/03/06 10:57:18;;;;;;;13.20;8.93;;;;;;;12.14;50.62;94546.13;5091184;28;20077;-68
2024/03/06 10:59:43;;;;;;;11.98;8.27;;;;;;;11.72;50.79;94538.69;5091186;28;20038;-69
2024/03/06 11:02:09;;;;;;;11.45;8.43;;;;;;;12.31;49.86;94545.38;5091095;28;20031;-68
2024/03/06 11:04:34;;;;;;;11.10;8.52;;;;;;;12.13;50.36;94540.09;5074115;28;20050;-68
2024/03/06 11:07:01;;;;;;;12.68;9.02;;;;;;;12.10;50.71;94531.78;5092269;28;20035;-69
2024/03/06 11:09:27;;;;;;;14.40;9.15;;;;;;;12.10;50.79;94529.97;5090923;28;20044;-69
2024/03/06 11:11:53;;;;;;;12.68;8.63;;;;;;;12.15;51.37;94525.16;5074006;28;20494;-70
2024/03/06 11:14:18;;;;;;;13.75;8.85;;;;;;;12.36;50.88;94531.91;5090568;28;20028;-69
2024/03/06 11:16:57;;;;;;;14.30;9.65;;;;;;;12.42;50.15;94523.50;5073886;28;20085;-69
2024/03/06 11:19:22;;;;;;;15.05;8.52;;;;;;;12.49;49.10;94516.78;5090896;28;20561;-69
2024/03/06 11:21:48;;;;;;;12.32;7.97;;;;;;;12.34;49.63;94468.72;5090780;28;20028;-69